OBBI/BAH METAR and TAF weather

Enter ICAO airport designator
Station Type Date Time Source
OBBI METAR 2022/09/26 08:00 UTC NOAA

OBBI 260800Z 34019KT CAVOK 35/23 Q1007 NOSIG


Station Type Date Time Source
OBBI Decoded METAR 2022/09/26 08:00 UTC NOAA

Bahrain International Airport , Bahrain (OBBI) 26-16N 050-39E 2M
Sep 26, 2022 - 04:00 AM EDT / 2022.09.26 0800 UTC
Wind: from the NNW (340 degrees) at 22 MPH (19 KT):0
Visibility: greater than 7 mile(s):0
Temperature: 95 F (35 C)
Heat index: 104.5 F (40.3 C):1
Dew Point: 73 F (23 C)
Relative Humidity: 49%
Pressure (altimeter): 29.74 in. Hg (1007 hPa)
ob: OBBI 260800Z 34019KT CAVOK 35/23 Q1007 NOSIG
cycle: 8

Station Type Date Time Source
OBBI TAF 2022/09/26 06:06 UTC NOAA

TAF TAF OBBI 260500Z 2606/2712 33017G27KT CAVOK
BECMG 2614/2616 33012KT PROB30
TEMPO 2618/2701 4000 DU

Example: see airport list